sensor_id;sensor_type;location;lat;lon;timestamp;P1;durP1;ratioP1;P2;durP2;ratioP2
6358;SDS011;3212;51.460;11.868;2023-03-19T00:00:38;18.10;;;11.18;;
6358;SDS011;3212;51.460;11.868;2023-03-19T00:04:01;17.13;;;11.87;;
6358;SDS011;3212;51.460;11.868;2023-03-19T00:07:24;21.27;;;11.20;;
6358;SDS011;3212;51.460;11.868;2023-03-19T00:10:47;17.50;;;10.87;;
6358;SDS011;3212;51.460;11.868;2023-03-19T00:14:09;20.80;;;11.80;;
6358;SDS011;3212;51.460;11.868;2023-03-19T00:17:33;16.50;;;10.60;;
6358;SDS011;3212;51.460;11.868;2023-03-19T00:20:55;20.53;;;11.03;;
6358;SDS011;3212;51.460;11.868;2023-03-19T00:24:18;15.50;;;10.67;;
6358;SDS011;3212;51.460;11.868;2023-03-19T00:27:41;19.80;;;10.77;;
6358;SDS011;3212;51.460;11.868;2023-03-19T00:31:07;17.50;;;11.23;;
6358;SDS011;3212;51.460;11.868;2023-03-19T00:34:29;17.05;;;11.38;;
6358;SDS011;3212;51.460;11.868;2023-03-19T00:37:52;17.23;;;11.47;;
6358;SDS011;3212;51.460;11.868;2023-03-19T00:41:15;15.00;;;9.97;;
6358;SDS011;3212;51.460;11.868;2023-03-19T00:44:38;16.40;;;11.30;;
6358;SDS011;3212;51.460;11.868;2023-03-19T00:48:02;20.73;;;12.20;;
6358;SDS011;3212;51.460;11.868;2023-03-19T00:51:25;16.47;;;10.60;;
6358;SDS011;3212;51.460;11.868;2023-03-19T00:54:48;20.53;;;11.33;;
6358;SDS011;3212;51.460;11.868;2023-03-19T00:58:10;19.50;;;11.63;;
6358;SDS011;3212;51.460;11.868;2023-03-19T01:01:33;20.60;;;13.50;;
6358;SDS011;3212;51.460;11.868;2023-03-19T01:04:55;22.30;;;13.70;;
6358;SDS011;3212;51.460;11.868;2023-03-19T01:08:17;25.77;;;13.00;;
6358;SDS011;3212;51.460;11.868;2023-03-19T01:11:40;28.53;;;12.53;;
6358;SDS011;3212;51.460;11.868;2023-03-19T01:15:04;20.17;;;13.32;;
6358;SDS011;3212;51.460;11.868;2023-03-19T01:18:26;21.40;;;13.30;;
6358;SDS011;3212;51.460;11.868;2023-03-19T01:21:48;19.53;;;12.10;;
6358;SDS011;3212;51.460;11.868;2023-03-19T01:25:12;20.70;;;12.75;;
6358;SDS011;3212;51.460;11.868;2023-03-19T01:28:34;20.10;;;12.40;;
6358;SDS011;3212;51.460;11.868;2023-03-19T01:31:56;19.03;;;12.67;;
6358;SDS011;3212;51.460;11.868;2023-03-19T01:35:19;21.33;;;12.53;;
6358;SDS011;3212;51.460;11.868;2023-03-19T01:38:42;23.80;;;11.93;;
6358;SDS011;3212;51.460;11.868;2023-03-19T01:42:04;23.40;;;13.47;;
6358;SDS011;3212;51.460;11.868;2023-03-19T01:45:35;20.63;;;12.23;;
6358;SDS011;3212;51.460;11.868;2023-03-19T01:48:59;20.37;;;12.70;;
6358;SDS011;3212;51.460;11.868;2023-03-19T01:52:20;19.40;;;10.93;;
6358;SDS011;3212;51.460;11.868;2023-03-19T01:55:43;18.50;;;11.70;;
6358;SDS011;3212;51.460;11.868;2023-03-19T01:59:08;24.10;;;12.13;;
6358;SDS011;3212;51.460;11.868;2023-03-19T02:02:29;23.67;;;13.67;;
6358;SDS011;3212;51.460;11.868;2023-03-19T02:05:52;25.23;;;14.00;;
6358;SDS011;3212;51.460;11.868;2023-03-19T02:09:14;24.70;;;13.50;;
6358;SDS011;3212;51.460;11.868;2023-03-19T02:12:37;21.60;;;13.23;;
6358;SDS011;3212;51.460;11.868;2023-03-19T02:16:00;19.70;;;12.50;;
6358;SDS011;3212;51.460;11.868;2023-03-19T02:19:27;19.43;;;12.03;;
6358;SDS011;3212;51.460;11.868;2023-03-19T02:23:02;18.70;;;10.90;;
6358;SDS011;3212;51.460;11.868;2023-03-19T02:26:28;21.50;;;12.47;;
6358;SDS011;3212;51.460;11.868;2023-03-19T02:29:50;24.33;;;11.63;;
6358;SDS011;3212;51.460;11.868;2023-03-19T02:33:13;19.27;;;10.70;;
6358;SDS011;3212;51.460;11.868;2023-03-19T02:36:39;17.03;;;10.73;;
6358;SDS011;3212;51.460;11.868;2023-03-19T02:40:05;22.80;;;11.90;;
6358;SDS011;3212;51.460;11.868;2023-03-19T02:43:29;20.90;;;11.83;;
6358;SDS011;3212;51.460;11.868;2023-03-19T02:46:51;17.90;;;10.47;;
6358;SDS011;3212;51.460;11.868;2023-03-19T02:50:14;17.00;;;10.60;;
6358;SDS011;3212;51.460;11.868;2023-03-19T02:53:37;18.33;;;10.90;;
6358;SDS011;3212;51.460;11.868;2023-03-19T02:57:00;16.33;;;9.50;;
6358;SDS011;3212;51.460;11.868;2023-03-19T03:00:23;16.90;;;10.00;;
6358;SDS011;3212;51.460;11.868;2023-03-19T03:03:45;16.80;;;9.70;;
6358;SDS011;3212;51.460;11.868;2023-03-19T03:07:08;15.93;;;9.70;;
6358;SDS011;3212;51.460;11.868;2023-03-19T03:10:31;17.03;;;10.03;;
6358;SDS011;3212;51.460;11.868;2023-03-19T03:13:53;18.13;;;11.33;;
6358;SDS011;3212;51.460;11.868;2023-03-19T03:17:15;17.47;;;10.90;;
6358;SDS011;3212;51.460;11.868;2023-03-19T03:20:37;17.33;;;10.67;;
6358;SDS011;3212;51.460;11.868;2023-03-19T03:24:00;17.07;;;10.30;;
6358;SDS011;3212;51.460;11.868;2023-03-19T03:27:23;17.03;;;10.20;;
6358;SDS011;3212;51.460;11.868;2023-03-19T03:30:45;17.10;;;10.53;;
6358;SDS011;3212;51.460;11.868;2023-03-19T03:34:08;17.37;;;9.90;;
6358;SDS011;3212;51.460;11.868;2023-03-19T03:37:31;13.50;;;9.60;;
6358;SDS011;3212;51.460;11.868;2023-03-19T03:40:54;17.80;;;10.43;;
6358;SDS011;3212;51.460;11.868;2023-03-19T03:44:16;20.63;;;10.50;;
6358;SDS011;3212;51.460;11.868;2023-03-19T03:47:38;15.55;;;9.80;;
6358;SDS011;3212;51.460;11.868;2023-03-19T03:51:01;16.80;;;10.00;;
6358;SDS011;3212;51.460;11.868;2023-03-19T03:54:23;15.03;;;9.83;;
6358;SDS011;3212;51.460;11.868;2023-03-19T03:57:47;16.23;;;10.00;;
6358;SDS011;3212;51.460;11.868;2023-03-19T04:01:13;20.58;;;11.02;;
6358;SDS011;3212;51.460;11.868;2023-03-19T04:04:33;18.27;;;10.30;;
6358;SDS011;3212;51.460;11.868;2023-03-19T04:07:56;16.37;;;9.47;;
6358;SDS011;3212;51.460;11.868;2023-03-19T04:11:18;19.00;;;9.17;;
6358;SDS011;3212;51.460;11.868;2023-03-19T04:14:47;15.90;;;8.83;;
6358;SDS011;3212;51.460;11.868;2023-03-19T04:18:10;15.17;;;8.80;;
6358;SDS011;3212;51.460;11.868;2023-03-19T04:21:32;22.27;;;9.73;;
6358;SDS011;3212;51.460;11.868;2023-03-19T04:24:55;14.90;;;9.60;;
6358;SDS011;3212;51.460;11.868;2023-03-19T04:28:17;17.50;;;10.20;;
6358;SDS011;3212;51.460;11.868;2023-03-19T04:31:39;15.73;;;9.43;;
6358;SDS011;3212;51.460;11.868;2023-03-19T04:35:02;15.10;;;9.93;;
6358;SDS011;3212;51.460;11.868;2023-03-19T04:38:25;16.97;;;8.80;;
6358;SDS011;3212;51.460;11.868;2023-03-19T04:41:47;15.57;;;9.77;;
6358;SDS011;3212;51.460;11.868;2023-03-19T04:45:10;16.58;;;9.90;;
6358;SDS011;3212;51.460;11.868;2023-03-19T04:48:33;13.83;;;9.40;;
6358;SDS011;3212;51.460;11.868;2023-03-19T04:51:55;15.37;;;9.80;;
6358;SDS011;3212;51.460;11.868;2023-03-19T04:55:18;16.10;;;9.73;;
6358;SDS011;3212;51.460;11.868;2023-03-19T04:58:40;16.93;;;9.97;;
6358;SDS011;3212;51.460;11.868;2023-03-19T05:02:03;12.40;;;8.97;;
6358;SDS011;3212;51.460;11.868;2023-03-19T05:05:26;17.53;;;9.63;;
6358;SDS011;3212;51.460;11.868;2023-03-19T05:08:49;14.40;;;8.80;;
6358;SDS011;3212;51.460;11.868;2023-03-19T05:12:11;18.37;;;9.47;;
6358;SDS011;3212;51.460;11.868;2023-03-19T05:15:35;15.17;;;9.90;;
6358;SDS011;3212;51.460;11.868;2023-03-19T05:18:58;13.50;;;9.23;;
6358;SDS011;3212;51.460;11.868;2023-03-19T05:22:20;14.80;;;9.50;;
6358;SDS011;3212;51.460;11.868;2023-03-19T05:25:43;15.70;;;9.20;;
6358;SDS011;3212;51.460;11.868;2023-03-19T05:29:05;14.97;;;10.23;;
6358;SDS011;3212;51.460;11.868;2023-03-19T05:32:27;16.07;;;9.50;;
6358;SDS011;3212;51.460;11.868;2023-03-19T05:35:51;16.62;;;9.88;;
6358;SDS011;3212;51.460;11.868;2023-03-19T05:39:13;15.20;;;10.10;;
6358;SDS011;3212;51.460;11.868;2023-03-19T05:42:35;18.90;;;11.37;;
6358;SDS011;3212;51.460;11.868;2023-03-19T05:45:59;23.30;;;10.53;;
6358;SDS011;3212;51.460;11.868;2023-03-19T05:49:21;16.40;;;10.77;;
6358;SDS011;3212;51.460;11.868;2023-03-19T05:52:43;14.57;;;10.10;;
6358;SDS011;3212;51.460;11.868;2023-03-19T05:56:06;18.03;;;10.70;;
6358;SDS011;3212;51.460;11.868;2023-03-19T05:59:30;16.60;;;11.00;;
6358;SDS011;3212;51.460;11.868;2023-03-19T06:02:52;14.37;;;10.00;;
6358;SDS011;3212;51.460;11.868;2023-03-19T06:06:14;20.00;;;10.40;;
6358;SDS011;3212;51.460;11.868;2023-03-19T06:09:37;16.30;;;10.63;;
6358;SDS011;3212;51.460;11.868;2023-03-19T06:12:59;16.37;;;10.90;;
6358;SDS011;3212;51.460;11.868;2023-03-19T06:16:22;16.77;;;10.53;;
6358;SDS011;3212;51.460;11.868;2023-03-19T06:19:45;15.77;;;10.10;;
6358;SDS011;3212;51.460;11.868;2023-03-19T06:23:07;15.07;;;9.77;;
6358;SDS011;3212;51.460;11.868;2023-03-19T06:26:30;15.00;;;9.67;;
6358;SDS011;3212;51.460;11.868;2023-03-19T06:29:52;14.87;;;9.60;;
6358;SDS011;3212;51.460;11.868;2023-03-19T06:33:14;14.90;;;10.30;;
6358;SDS011;3212;51.460;11.868;2023-03-19T06:36:38;18.30;;;10.67;;
6358;SDS011;3212;51.460;11.868;2023-03-19T06:40:01;16.73;;;10.13;;
6358;SDS011;3212;51.460;11.868;2023-03-19T06:43:24;14.27;;;9.70;;
6358;SDS011;3212;51.460;11.868;2023-03-19T06:46:47;16.12;;;9.10;;
6358;SDS011;3212;51.460;11.868;2023-03-19T06:50:10;15.80;;;10.73;;
6358;SDS011;3212;51.460;11.868;2023-03-19T06:53:32;14.27;;;10.10;;
6358;SDS011;3212;51.460;11.868;2023-03-19T06:56:55;15.87;;;9.87;;
6358;SDS011;3212;51.460;11.868;2023-03-19T07:00:17;16.15;;;10.05;;
6358;SDS011;3212;51.460;11.868;2023-03-19T07:03:40;19.17;;;10.87;;
6358;SDS011;3212;51.460;11.868;2023-03-19T07:07:02;13.57;;;9.20;;
6358;SDS011;3212;51.460;11.868;2023-03-19T07:10:25;15.47;;;10.53;;
6358;SDS011;3212;51.460;11.868;2023-03-19T07:13:48;14.90;;;9.50;;
6358;SDS011;3212;51.460;11.868;2023-03-19T07:17:10;17.43;;;10.30;;
6358;SDS011;3212;51.460;11.868;2023-03-19T07:20:33;17.77;;;9.93;;
6358;SDS011;3212;51.460;11.868;2023-03-19T07:23:56;16.70;;;10.60;;
6358;SDS011;3212;51.460;11.868;2023-03-19T07:27:18;15.53;;;9.40;;
6358;SDS011;3212;51.460;11.868;2023-03-19T07:30:41;13.90;;;8.87;;
6358;SDS011;3212;51.460;11.868;2023-03-19T07:34:04;12.70;;;8.57;;
6358;SDS011;3212;51.460;11.868;2023-03-19T07:37:26;12.63;;;8.68;;
6358;SDS011;3212;51.460;11.868;2023-03-19T07:40:49;12.37;;;9.10;;
6358;SDS011;3212;51.460;11.868;2023-03-19T07:44:12;11.53;;;8.27;;
6358;SDS011;3212;51.460;11.868;2023-03-19T07:47:35;9.97;;;8.40;;
6358;SDS011;3212;51.460;11.868;2023-03-19T07:50:58;12.70;;;8.40;;
6358;SDS011;3212;51.460;11.868;2023-03-19T07:54:20;11.80;;;7.47;;
6358;SDS011;3212;51.460;11.868;2023-03-19T07:57:42;10.90;;;7.40;;
6358;SDS011;3212;51.460;11.868;2023-03-19T08:01:05;11.57;;;8.17;;
6358;SDS011;3212;51.460;11.868;2023-03-19T08:04:28;13.37;;;8.13;;
6358;SDS011;3212;51.460;11.868;2023-03-19T08:07:50;13.17;;;7.57;;
6358;SDS011;3212;51.460;11.868;2023-03-19T08:11:13;9.87;;;7.30;;
6358;SDS011;3212;51.460;11.868;2023-03-19T08:14:36;9.07;;;6.90;;
6358;SDS011;3212;51.460;11.868;2023-03-19T08:17:59;12.10;;;7.47;;
6358;SDS011;3212;51.460;11.868;2023-03-19T08:21:21;10.80;;;7.70;;
6358;SDS011;3212;51.460;11.868;2023-03-19T08:24:43;12.83;;;7.30;;
6358;SDS011;3212;51.460;11.868;2023-03-19T08:28:06;13.17;;;8.30;;
6358;SDS011;3212;51.460;11.868;2023-03-19T08:31:28;9.80;;;7.50;;
6358;SDS011;3212;51.460;11.868;2023-03-19T08:34:51;9.43;;;6.90;;
6358;SDS011;3212;51.460;11.868;2023-03-19T08:38:13;9.00;;;6.73;;
6358;SDS011;3212;51.460;11.868;2023-03-19T08:41:35;10.27;;;7.73;;
6358;SDS011;3212;51.460;11.868;2023-03-19T08:44:58;13.67;;;6.83;;
6358;SDS011;3212;51.460;11.868;2023-03-19T08:48:21;13.83;;;7.43;;
6358;SDS011;3212;51.460;11.868;2023-03-19T08:51:43;13.00;;;6.73;;
6358;SDS011;3212;51.460;11.868;2023-03-19T08:55:06;10.73;;;6.93;;
6358;SDS011;3212;51.460;11.868;2023-03-19T08:58:29;9.53;;;6.50;;
6358;SDS011;3212;51.460;11.868;2023-03-19T09:01:51;10.87;;;6.30;;
6358;SDS011;3212;51.460;11.868;2023-03-19T09:05:15;9.80;;;7.10;;
6358;SDS011;3212;51.460;11.868;2023-03-19T09:08:38;10.40;;;6.80;;
6358;SDS011;3212;51.460;11.868;2023-03-19T09:12:00;8.48;;;6.15;;
6358;SDS011;3212;51.460;11.868;2023-03-19T09:15:23;7.87;;;5.53;;
6358;SDS011;3212;51.460;11.868;2023-03-19T09:18:45;10.53;;;7.50;;
6358;SDS011;3212;51.460;11.868;2023-03-19T09:22:07;11.17;;;7.17;;
6358;SDS011;3212;51.460;11.868;2023-03-19T09:25:30;11.10;;;7.47;;
6358;SDS011;3212;51.460;11.868;2023-03-19T09:28:53;9.60;;;7.27;;
6358;SDS011;3212;51.460;11.868;2023-03-19T09:32:15;8.00;;;6.50;;
6358;SDS011;3212;51.460;11.868;2023-03-19T09:35:39;10.87;;;6.73;;
6358;SDS011;3212;51.460;11.868;2023-03-19T09:39:01;9.90;;;6.50;;
6358;SDS011;3212;51.460;11.868;2023-03-19T09:46:07;9.00;;;6.93;;
6358;SDS011;3212;51.460;11.868;2023-03-19T09:49:27;9.13;;;6.77;;
6358;SDS011;3212;51.460;11.868;2023-03-19T09:56:19;9.50;;;6.83;;
6358;SDS011;3212;51.460;11.868;2023-03-19T09:59:42;9.30;;;7.20;;
6358;SDS011;3212;51.460;11.868;2023-03-19T10:07:07;11.00;;;6.80;;
6358;SDS011;3212;51.460;11.868;2023-03-19T10:10:32;10.23;;;6.93;;
6358;SDS011;3212;51.460;11.868;2023-03-19T10:14:18;10.83;;;7.40;;
6358;SDS011;3212;51.460;11.868;2023-03-19T10:17:48;11.97;;;7.30;;
6358;SDS011;3212;51.460;11.868;2023-03-19T10:21:14;13.13;;;7.70;;
6358;SDS011;3212;51.460;11.868;2023-03-19T10:24:40;10.33;;;7.03;;
6358;SDS011;3212;51.460;11.868;2023-03-19T10:28:11;10.50;;;7.50;;
6358;SDS011;3212;51.460;11.868;2023-03-19T10:31:42;10.80;;;7.53;;
6358;SDS011;3212;51.460;11.868;2023-03-19T10:35:19;12.97;;;7.30;;
6358;SDS011;3212;51.460;11.868;2023-03-19T10:38:43;12.17;;;7.13;;
6358;SDS011;3212;51.460;11.868;2023-03-19T10:42:07;10.83;;;8.37;;
6358;SDS011;3212;51.460;11.868;2023-03-19T10:45:31;8.70;;;6.83;;
6358;SDS011;3212;51.460;11.868;2023-03-19T10:48:54;11.60;;;6.80;;
6358;SDS011;3212;51.460;11.868;2023-03-19T10:52:19;8.90;;;6.90;;
6358;SDS011;3212;51.460;11.868;2023-03-19T10:55:43;9.07;;;6.00;;
6358;SDS011;3212;51.460;11.868;2023-03-19T10:59:10;10.97;;;5.90;;
6358;SDS011;3212;51.460;11.868;2023-03-19T11:02:28;6.90;;;5.77;;
6358;SDS011;3212;51.460;11.868;2023-03-19T11:05:58;10.43;;;5.70;;
6358;SDS011;3212;51.460;11.868;2023-03-19T11:13:03;6.73;;;5.33;;
6358;SDS011;3212;51.460;11.868;2023-03-19T11:16:27;8.37;;;5.80;;
6358;SDS011;3212;51.460;11.868;2023-03-19T11:19:52;7.53;;;5.97;;
6358;SDS011;3212;51.460;11.868;2023-03-19T11:23:15;7.77;;;5.33;;
6358;SDS011;3212;51.460;11.868;2023-03-19T11:26:37;9.10;;;6.40;;
6358;SDS011;3212;51.460;11.868;2023-03-19T11:30:01;9.07;;;5.70;;
6358;SDS011;3212;51.460;11.868;2023-03-19T11:33:26;7.07;;;4.47;;
6358;SDS011;3212;51.460;11.868;2023-03-19T11:47:39;5.97;;;4.27;;
6358;SDS011;3212;51.460;11.868;2023-03-19T11:50:59;6.23;;;4.10;;
6358;SDS011;3212;51.460;11.868;2023-03-19T11:54:22;5.90;;;3.90;;
6358;SDS011;3212;51.460;11.868;2023-03-19T11:57:51;5.10;;;4.03;;
6358;SDS011;3212;51.460;11.868;2023-03-19T12:01:14;8.30;;;4.93;;
6358;SDS011;3212;51.460;11.868;2023-03-19T12:04:35;6.33;;;3.83;;
6358;SDS011;3212;51.460;11.868;2023-03-19T12:08:18;8.20;;;4.73;;
6358;SDS011;3212;51.460;11.868;2023-03-19T12:11:54;7.10;;;4.10;;
6358;SDS011;3212;51.460;11.868;2023-03-19T12:15:24;5.70;;;3.50;;
6358;SDS011;3212;51.460;11.868;2023-03-19T12:22:21;9.20;;;4.87;;
6358;SDS011;3212;51.460;11.868;2023-03-19T12:25:55;6.37;;;4.70;;
6358;SDS011;3212;51.460;11.868;2023-03-19T12:29:37;11.50;;;5.43;;
6358;SDS011;3212;51.460;11.868;2023-03-19T12:33:02;10.30;;;5.00;;
6358;SDS011;3212;51.460;11.868;2023-03-19T12:36:22;6.60;;;4.50;;
6358;SDS011;3212;51.460;11.868;2023-03-19T12:43:17;5.73;;;3.73;;
6358;SDS011;3212;51.460;11.868;2023-03-19T12:46:41;8.23;;;3.50;;
6358;SDS011;3212;51.460;11.868;2023-03-19T12:50:04;4.87;;;3.50;;
6358;SDS011;3212;51.460;11.868;2023-03-19T13:04:19;5.87;;;3.97;;
6358;SDS011;3212;51.460;11.868;2023-03-19T13:07:45;5.33;;;3.80;;
6358;SDS011;3212;51.460;11.868;2023-03-19T13:11:09;5.93;;;3.83;;
6358;SDS011;3212;51.460;11.868;2023-03-19T13:14:35;5.40;;;3.50;;
6358;SDS011;3212;51.460;11.868;2023-03-19T13:18:04;6.43;;;3.10;;
6358;SDS011;3212;51.460;11.868;2023-03-19T13:21:29;5.30;;;3.40;;
6358;SDS011;3212;51.460;11.868;2023-03-19T13:24:51;6.03;;;3.37;;
6358;SDS011;3212;51.460;11.868;2023-03-19T13:28:22;6.97;;;3.67;;
6358;SDS011;3212;51.460;11.868;2023-03-19T13:31:47;4.67;;;3.20;;
6358;SDS011;3212;51.460;11.868;2023-03-19T13:35:18;4.30;;;3.23;;
6358;SDS011;3212;51.460;11.868;2023-03-19T13:38:44;4.90;;;3.20;;
6358;SDS011;3212;51.460;11.868;2023-03-19T13:42:21;3.57;;;3.20;;
6358;SDS011;3212;51.460;11.868;2023-03-19T13:45:33;7.90;;;3.27;;
6358;SDS011;3212;51.460;11.868;2023-03-19T13:49:01;3.90;;;2.60;;
6358;SDS011;3212;51.460;11.868;2023-03-19T13:56:15;6.47;;;2.87;;
6358;SDS011;3212;51.460;11.868;2023-03-19T13:59:37;3.65;;;2.62;;
6358;SDS011;3212;51.460;11.868;2023-03-19T14:03:00;3.30;;;2.80;;
6358;SDS011;3212;51.460;11.868;2023-03-19T14:10:03;3.47;;;2.80;;
6358;SDS011;3212;51.460;11.868;2023-03-19T14:13:28;4.23;;;2.10;;
6358;SDS011;3212;51.460;11.868;2023-03-19T14:16:50;4.27;;;2.60;;
6358;SDS011;3212;51.460;11.868;2023-03-19T14:23:51;4.28;;;2.90;;
6358;SDS011;3212;51.460;11.868;2023-03-19T14:27:14;4.20;;;2.45;;
6358;SDS011;3212;51.460;11.868;2023-03-19T14:30:38;1.73;;;1.63;;
6358;SDS011;3212;51.460;11.868;2023-03-19T14:34:05;2.73;;;2.20;;
6358;SDS011;3212;51.460;11.868;2023-03-19T14:37:33;2.40;;;2.10;;
6358;SDS011;3212;51.460;11.868;2023-03-19T14:41:03;2.57;;;2.03;;
6358;SDS011;3212;51.460;11.868;2023-03-19T14:44:33;3.63;;;2.40;;
6358;SDS011;3212;51.460;11.868;2023-03-19T14:47:54;2.83;;;2.17;;
6358;SDS011;3212;51.460;11.868;2023-03-19T14:55:15;3.30;;;2.00;;
6358;SDS011;3212;51.460;11.868;2023-03-19T14:58:46;2.73;;;2.00;;
6358;SDS011;3212;51.460;11.868;2023-03-19T15:05:55;4.40;;;2.10;;
6358;SDS011;3212;51.460;11.868;2023-03-19T15:09:23;2.57;;;2.20;;
6358;SDS011;3212;51.460;11.868;2023-03-19T15:12:49;3.03;;;2.60;;
6358;SDS011;3212;51.460;11.868;2023-03-19T15:19:52;3.60;;;2.83;;
6358;SDS011;3212;51.460;11.868;2023-03-19T15:23:16;4.60;;;3.20;;
6358;SDS011;3212;51.460;11.868;2023-03-19T15:26:36;6.70;;;3.40;;
6358;SDS011;3212;51.460;11.868;2023-03-19T15:29:59;6.33;;;3.47;;
6358;SDS011;3212;51.460;11.868;2023-03-19T15:33:23;3.37;;;3.00;;
6358;SDS011;3212;51.460;11.868;2023-03-19T15:36:45;5.33;;;3.60;;
6358;SDS011;3212;51.460;11.868;2023-03-19T15:40:10;5.93;;;3.20;;
6358;SDS011;3212;51.460;11.868;2023-03-19T15:43:32;4.10;;;2.80;;
6358;SDS011;3212;51.460;11.868;2023-03-19T15:46:55;3.10;;;2.80;;
6358;SDS011;3212;51.460;11.868;2023-03-19T15:50:17;4.07;;;2.80;;
6358;SDS011;3212;51.460;11.868;2023-03-19T15:53:39;4.50;;;2.97;;
6358;SDS011;3212;51.460;11.868;2023-03-19T15:57:04;3.33;;;2.80;;
6358;SDS011;3212;51.460;11.868;2023-03-19T16:00:25;3.47;;;3.03;;
6358;SDS011;3212;51.460;11.868;2023-03-19T16:03:50;4.50;;;3.37;;
6358;SDS011;3212;51.460;11.868;2023-03-19T16:10:43;4.90;;;3.27;;
6358;SDS011;3212;51.460;11.868;2023-03-19T16:14:09;5.77;;;4.37;;
6358;SDS011;3212;51.460;11.868;2023-03-19T16:17:33;5.33;;;3.80;;
6358;SDS011;3212;51.460;11.868;2023-03-19T16:20:59;9.93;;;7.00;;
6358;SDS011;3212;51.460;11.868;2023-03-19T16:24:30;6.53;;;5.70;;
6358;SDS011;3212;51.460;11.868;2023-03-19T16:27:52;7.93;;;5.20;;
6358;SDS011;3212;51.460;11.868;2023-03-19T16:31:17;4.57;;;4.00;;
6358;SDS011;3212;51.460;11.868;2023-03-19T16:34:41;5.75;;;4.87;;
6358;SDS011;3212;51.460;11.868;2023-03-19T16:38:06;5.10;;;4.00;;
6358;SDS011;3212;51.460;11.868;2023-03-19T16:41:32;7.77;;;5.37;;
6358;SDS011;3212;51.460;11.868;2023-03-19T16:44:55;7.10;;;6.07;;
6358;SDS011;3212;51.460;11.868;2023-03-19T16:48:17;7.23;;;5.97;;
6358;SDS011;3212;51.460;11.868;2023-03-19T16:51:40;6.37;;;4.80;;
6358;SDS011;3212;51.460;11.868;2023-03-19T16:55:04;9.40;;;6.07;;
6358;SDS011;3212;51.460;11.868;2023-03-19T16:58:27;8.88;;;5.85;;
6358;SDS011;3212;51.460;11.868;2023-03-19T17:01:50;9.60;;;6.40;;
6358;SDS011;3212;51.460;11.868;2023-03-19T17:05:13;9.90;;;6.23;;
6358;SDS011;3212;51.460;11.868;2023-03-19T17:08:36;7.83;;;5.40;;
6358;SDS011;3212;51.460;11.868;2023-03-19T17:11:58;9.20;;;5.20;;
6358;SDS011;3212;51.460;11.868;2023-03-19T17:15:22;10.00;;;6.30;;
6358;SDS011;3212;51.460;11.868;2023-03-19T17:18:48;11.13;;;7.83;;
6358;SDS011;3212;51.460;11.868;2023-03-19T17:22:11;11.43;;;8.37;;
6358;SDS011;3212;51.460;11.868;2023-03-19T17:25:33;17.33;;;11.47;;
6358;SDS011;3212;51.460;11.868;2023-03-19T17:28:56;20.60;;;12.20;;
6358;SDS011;3212;51.460;11.868;2023-03-19T17:32:19;21.10;;;12.73;;
6358;SDS011;3212;51.460;11.868;2023-03-19T17:35:41;14.20;;;9.60;;
6358;SDS011;3212;51.460;11.868;2023-03-19T17:39:04;11.67;;;8.03;;
6358;SDS011;3212;51.460;11.868;2023-03-19T17:42:27;12.00;;;7.67;;
6358;SDS011;3212;51.460;11.868;2023-03-19T17:45:49;9.30;;;6.50;;
6358;SDS011;3212;51.460;11.868;2023-03-19T17:49:22;24.90;;;14.37;;
6358;SDS011;3212;51.460;11.868;2023-03-19T17:52:49;16.37;;;11.60;;
6358;SDS011;3212;51.460;11.868;2023-03-19T17:56:12;14.37;;;11.00;;
6358;SDS011;3212;51.460;11.868;2023-03-19T17:59:35;12.13;;;9.10;;
6358;SDS011;3212;51.460;11.868;2023-03-19T18:02:57;10.97;;;8.10;;
6358;SDS011;3212;51.460;11.868;2023-03-19T18:06:21;14.33;;;8.97;;
6358;SDS011;3212;51.460;11.868;2023-03-19T18:09:42;8.77;;;6.63;;
6358;SDS011;3212;51.460;11.868;2023-03-19T18:13:06;12.07;;;7.10;;
6358;SDS011;3212;51.460;11.868;2023-03-19T18:16:29;9.07;;;6.30;;
6358;SDS011;3212;51.460;11.868;2023-03-19T18:19:52;9.10;;;6.40;;
6358;SDS011;3212;51.460;11.868;2023-03-19T18:23:14;14.90;;;10.00;;
6358;SDS011;3212;51.460;11.868;2023-03-19T18:26:37;20.90;;;11.73;;
6358;SDS011;3212;51.460;11.868;2023-03-19T18:30:00;26.33;;;15.13;;
6358;SDS011;3212;51.460;11.868;2023-03-19T18:33:23;21.77;;;13.03;;
6358;SDS011;3212;51.460;11.868;2023-03-19T18:36:45;25.50;;;11.30;;
6358;SDS011;3212;51.460;11.868;2023-03-19T18:40:11;8.57;;;6.30;;
6358;SDS011;3212;51.460;11.868;2023-03-19T18:43:34;7.60;;;5.67;;
6358;SDS011;3212;51.460;11.868;2023-03-19T18:46:57;8.63;;;5.93;;
6358;SDS011;3212;51.460;11.868;2023-03-19T18:50:22;13.87;;;8.00;;
6358;SDS011;3212;51.460;11.868;2023-03-19T18:53:43;8.67;;;6.80;;
6358;SDS011;3212;51.460;11.868;2023-03-19T18:57:06;9.80;;;6.90;;
6358;SDS011;3212;51.460;11.868;2023-03-19T19:00:30;46.60;;;27.67;;
6358;SDS011;3212;51.460;11.868;2023-03-19T19:03:52;12.93;;;7.00;;
6358;SDS011;3212;51.460;11.868;2023-03-19T19:07:14;8.47;;;5.93;;
6358;SDS011;3212;51.460;11.868;2023-03-19T19:10:37;12.70;;;8.80;;
6358;SDS011;3212;51.460;11.868;2023-03-19T19:13:59;7.00;;;5.40;;
6358;SDS011;3212;51.460;11.868;2023-03-19T19:17:22;8.07;;;5.70;;
6358;SDS011;3212;51.460;11.868;2023-03-19T19:20:46;10.73;;;7.60;;
6358;SDS011;3212;51.460;11.868;2023-03-19T19:24:08;10.03;;;7.20;;
6358;SDS011;3212;51.460;11.868;2023-03-19T19:27:30;7.03;;;5.00;;
6358;SDS011;3212;51.460;11.868;2023-03-19T19:30:53;7.90;;;6.03;;
6358;SDS011;3212;51.460;11.868;2023-03-19T19:34:16;8.37;;;5.40;;
6358;SDS011;3212;51.460;11.868;2023-03-19T19:37:38;7.90;;;5.20;;
6358;SDS011;3212;51.460;11.868;2023-03-19T19:41:00;8.70;;;5.63;;
6358;SDS011;3212;51.460;11.868;2023-03-19T19:44:23;6.43;;;5.10;;
6358;SDS011;3212;51.460;11.868;2023-03-19T19:47:45;7.00;;;5.87;;
6358;SDS011;3212;51.460;11.868;2023-03-19T19:51:09;7.33;;;5.80;;
6358;SDS011;3212;51.460;11.868;2023-03-19T19:54:31;8.83;;;6.13;;
6358;SDS011;3212;51.460;11.868;2023-03-19T19:57:54;10.17;;;5.33;;
6358;SDS011;3212;51.460;11.868;2023-03-19T20:01:17;8.00;;;5.60;;
6358;SDS011;3212;51.460;11.868;2023-03-19T20:04:38;6.50;;;5.30;;
6358;SDS011;3212;51.460;11.868;2023-03-19T20:08:00;10.40;;;5.53;;
6358;SDS011;3212;51.460;11.868;2023-03-19T20:11:23;7.43;;;5.80;;
6358;SDS011;3212;51.460;11.868;2023-03-19T20:14:46;9.20;;;6.23;;
6358;SDS011;3212;51.460;11.868;2023-03-19T20:18:09;10.10;;;6.70;;
6358;SDS011;3212;51.460;11.868;2023-03-19T20:21:31;7.27;;;5.83;;
6358;SDS011;3212;51.460;11.868;2023-03-19T20:24:53;7.03;;;5.55;;
6358;SDS011;3212;51.460;11.868;2023-03-19T20:28:21;8.20;;;6.17;;
6358;SDS011;3212;51.460;11.868;2023-03-19T20:31:43;8.30;;;6.30;;
6358;SDS011;3212;51.460;11.868;2023-03-19T20:35:09;14.10;;;8.00;;
6358;SDS011;3212;51.460;11.868;2023-03-19T20:38:29;11.93;;;7.90;;
6358;SDS011;3212;51.460;11.868;2023-03-19T20:41:51;15.60;;;9.40;;
6358;SDS011;3212;51.460;11.868;2023-03-19T20:45:15;13.90;;;8.20;;
6358;SDS011;3212;51.460;11.868;2023-03-19T20:48:37;14.40;;;8.63;;
6358;SDS011;3212;51.460;11.868;2023-03-19T20:51:59;28.23;;;14.37;;
6358;SDS011;3212;51.460;11.868;2023-03-19T20:55:22;18.50;;;10.37;;
6358;SDS011;3212;51.460;11.868;2023-03-19T20:58:44;27.93;;;16.50;;
6358;SDS011;3212;51.460;11.868;2023-03-19T21:02:15;12.07;;;8.10;;
6358;SDS011;3212;51.460;11.868;2023-03-19T21:05:39;12.65;;;7.00;;
6358;SDS011;3212;51.460;11.868;2023-03-19T21:09:02;11.87;;;7.43;;
6358;SDS011;3212;51.460;11.868;2023-03-19T21:12:29;6.73;;;5.40;;
6358;SDS011;3212;51.460;11.868;2023-03-19T21:15:51;9.53;;;5.50;;
6358;SDS011;3212;51.460;11.868;2023-03-19T21:19:13;9.07;;;6.30;;
6358;SDS011;3212;51.460;11.868;2023-03-19T21:22:36;6.53;;;4.33;;
6358;SDS011;3212;51.460;11.868;2023-03-19T21:26:06;6.50;;;3.97;;
6358;SDS011;3212;51.460;11.868;2023-03-19T21:29:26;4.83;;;3.80;;
6358;SDS011;3212;51.460;11.868;2023-03-19T21:32:46;4.37;;;3.27;;
6358;SDS011;3212;51.460;11.868;2023-03-19T21:36:08;3.50;;;3.20;;
6358;SDS011;3212;51.460;11.868;2023-03-19T21:39:31;4.00;;;3.07;;